Time;durP1;ratioP1;P1;durP2;ratioP2;P2;SDS_P1;SDS_P2;PMS_P1;PMS_P2;Temp;Humidity;BMP_temperature;BMP_pressure;BME280_temperature;BME280_humidity;BME280_pressure;Samples;Min_cycle;Max_cycle;Signal;HPM_P1;HPM_P2
2021/12/08 00:01:20;;;;;;;2.37;2.27;;;;;;;23.31;30.18;93986.50;4939182;28;102684;-56
2021/12/08 00:03:46;;;;;;;2.13;2.03;;;;;;;23.33;30.14;93983.50;4947113;28;102835;-56
2021/12/08 00:06:12;;;;;;;2.23;2.03;;;;;;;23.26;30.38;93976.09;4959450;28;103217;-56
2021/12/08 00:08:38;;;;;;;2.07;1.97;;;;;;;23.24;29.94;93977.53;4920639;28;103547;-55
2021/12/08 00:13:49;;;;;;;2.30;2.10;;;;;;;23.33;30.22;94004.84;4940291;28;103045;-56
2021/12/08 00:16:15;;;;;;;2.00;1.90;;;;;;;23.33;30.78;94002.19;4940332;28;103231;-56
2021/12/08 00:18:47;;;;;;;1.93;1.83;;;;;;;23.31;30.19;94007.84;4939147;28;102841;-55
2021/12/08 00:21:13;;;;;;;1.50;1.40;;;;;;;23.30;30.00;94006.28;4939768;28;102785;-55
2021/12/08 00:23:39;;;;;;;1.90;1.80;;;;;;;23.32;30.31;94013.94;4939857;28;103432;-55
2021/12/08 00:26:05;;;;;;;2.03;1.93;;;;;;;23.28;30.05;94005.06;4939736;28;103457;-56
2021/12/08 00:28:31;;;;;;;2.13;2.03;;;;;;;23.30;30.07;94008.94;4939552;28;103276;-56
2021/12/08 00:31:01;;;;;;;1.70;1.60;;;;;;;23.31;30.27;94015.84;4938842;28;102783;-55
2021/12/08 00:33:28;;;;;;;1.87;1.77;;;;;;;23.30;30.38;94016.16;4939563;28;102830;-55
2021/12/08 00:35:55;;;;;;;1.97;1.87;;;;;;;23.30;30.26;94016.94;4938491;28;103563;-56
2021/12/08 00:38:21;;;;;;;1.90;1.80;;;;;;;23.30;30.02;94021.50;4939675;28;103335;-55
2021/12/08 00:40:49;;;;;;;1.90;1.80;;;;;;;23.29;29.83;94023.38;4951079;28;102673;-55
2021/12/08 00:43:15;;;;;;;1.93;1.83;;;;;;;23.30;30.16;94027.59;4942080;28;103518;-56
2021/12/08 00:45:41;;;;;;;1.70;1.60;;;;;;;23.31;30.01;94023.06;4939560;28;103382;-56
2021/12/08 00:48:06;;;;;;;2.03;1.83;;;;;;;23.30;30.61;94024.94;4940796;28;102821;-56
2021/12/08 00:50:35;;;;;;;1.90;1.80;;;;;;;23.30;30.41;94032.16;4942609;28;102776;-56
2021/12/08 00:53:02;;;;;;;1.90;1.80;;;;;;;23.28;30.03;94037.03;4942125;28;103326;-56
2021/12/08 00:55:28;;;;;;;1.63;1.53;;;;;;;23.30;30.00;94037.50;4943157;28;103087;-56
2021/12/08 00:57:54;;;;;;;1.70;1.60;;;;;;;23.24;30.04;94025.50;4942944;28;102755;-56
2021/12/08 01:00:28;;;;;;;1.77;1.67;;;;;;;23.28;30.13;94034.38;4947907;28;104061;-56
2021/12/08 01:02:54;;;;;;;1.77;1.67;;;;;;;23.28;30.07;94023.72;4933199;28;103862;-55
2021/12/08 01:05:24;;;;;;;1.83;1.73;;;;;;;23.28;30.44;94029.81;4942095;28;103465;-55
2021/12/08 01:07:50;;;;;;;1.80;1.70;;;;;;;23.29;30.10;94041.28;4942472;28;102733;-55
2021/12/08 01:10:20;;;;;;;1.60;1.50;;;;;;;23.29;29.86;94033.28;4943175;28;102796;-55
2021/12/08 01:12:46;;;;;;;1.80;1.70;;;;;;;23.20;29.86;94021.94;4942157;28;103242;-56
2021/12/08 01:15:13;;;;;;;2.00;1.80;;;;;;;23.28;29.88;94039.72;4941899;28;102776;-56
2021/12/08 01:17:40;;;;;;;1.60;1.50;;;;;;;23.29;30.12;94035.94;4942454;28;103016;-56
2021/12/08 01:20:08;;;;;;;1.73;1.63;;;;;;;23.23;29.78;94035.38;4943433;28;103185;-56
2021/12/08 01:22:34;;;;;;;1.67;1.57;;;;;;;23.29;29.73;94033.28;4941684;28;102669;-56
2021/12/08 01:24:59;;;;;;;1.87;1.77;;;;;;;23.29;29.92;94036.72;4940922;28;102769;-56
2021/12/08 01:27:25;;;;;;;1.70;1.60;;;;;;;23.18;30.10;94024.94;4942050;28;102874;-55
2021/12/08 01:29:51;;;;;;;1.60;1.50;;;;;;;23.26;29.86;94031.28;4943170;28;102764;-56
2021/12/08 01:32:19;;;;;;;1.60;1.50;;;;;;;23.28;29.61;94027.16;4940716;28;102665;-56
2021/12/08 01:34:44;;;;;;;1.63;1.53;;;;;;;23.26;29.74;94033.94;4941389;28;103512;-56
2021/12/08 01:37:10;;;;;;;1.60;1.50;;;;;;;23.28;29.78;94040.50;4941709;28;103395;-56
2021/12/08 01:39:35;;;;;;;1.73;1.63;;;;;;;23.29;29.81;94046.59;4942437;28;103253;-57
2021/12/08 01:42:01;;;;;;;1.83;1.73;;;;;;;23.29;29.86;94052.72;4941841;28;103481;-55
2021/12/08 01:47:10;;;;;;;1.93;1.60;;;;;;;23.28;30.17;94061.03;4941433;28;102785;-55
2021/12/08 01:49:36;;;;;;;2.03;1.87;;;;;;;23.26;30.21;94047.25;4938572;28;102661;-55
2021/12/08 01:52:02;;;;;;;1.60;1.50;;;;;;;23.28;30.13;94050.38;4939947;28;102847;-55
2021/12/08 01:54:27;;;;;;;1.60;1.50;;;;;;;23.27;29.58;94054.94;4941358;28;102743;-55
2021/12/08 01:56:53;;;;;;;2.00;1.90;;;;;;;23.27;30.18;94060.25;4941043;28;102678;-55
2021/12/08 01:59:18;;;;;;;1.80;1.70;;;;;;;23.24;30.01;94060.16;4940261;28;103350;-55
2021/12/08 02:01:45;;;;;;;1.97;1.87;;;;;;;23.21;29.77;94050.16;4941207;28;103344;-56
2021/12/08 02:04:12;;;;;;;1.90;1.80;;;;;;;23.27;29.83;94065.59;4940860;28;103248;-56
2021/12/08 02:06:42;;;;;;;1.40;1.30;;;;;;;23.26;30.17;94071.25;4923274;28;103398;-56
2021/12/08 02:09:11;;;;;;;1.90;1.80;;;;;;;23.28;30.22;94075.13;4941147;28;102933;-56
2021/12/08 02:11:44;;;;;;;1.80;1.70;;;;;;;23.28;29.47;94074.34;4941387;28;103416;-56
2021/12/08 02:14:10;;;;;;;1.70;1.60;;;;;;;23.26;29.76;94061.38;4940351;28;102747;-56
2021/12/08 02:16:37;;;;;;;2.20;2.10;;;;;;;23.24;29.83;94060.16;4941802;28;102760;-56
2021/12/08 02:19:03;;;;;;;2.17;2.07;;;;;;;23.27;30.05;94075.47;4936105;28;102768;-56
2021/12/08 02:21:40;;;;;;;2.03;1.93;;;;;;;23.22;29.78;94070.34;4940534;28;103015;-56
2021/12/08 02:24:11;;;;;;;2.03;1.93;;;;;;;23.24;29.98;94082.25;4933796;28;103102;-56
2021/12/08 02:26:39;;;;;;;2.40;2.20;;;;;;;23.18;29.98;94067.59;4925680;28;103347;-56
2021/12/08 02:29:14;;;;;;;2.67;2.00;;;;;;;23.28;29.86;94087.69;4942436;28;102752;-56
2021/12/08 02:32:42;;;;;;;2.60;2.40;;;;;;;23.27;29.76;94091.47;4940569;28;103397;-56
2021/12/08 02:48:14;;;;;;;2.87;2.67;;;;;;;23.25;29.51;94094.47;4926243;28;102679;-56
2021/12/08 02:50:42;;;;;;;2.50;2.40;;;;;;;23.16;29.53;94085.75;4941529;28;102768;-56
2021/12/08 02:53:10;;;;;;;2.87;2.67;;;;;;;23.26;29.66;94101.34;4940402;28;103181;-56
2021/12/08 02:55:37;;;;;;;3.03;2.83;;;;;;;23.27;29.61;94096.78;4940451;28;103177;-56
2021/12/08 02:58:03;;;;;;;2.70;2.50;;;;;;;23.26;29.62;94097.91;4926973;28;102768;-55
2021/12/08 03:00:33;;;;;;;3.13;2.93;;;;;;;23.20;29.48;94097.34;4940551;28;103155;-55
2021/12/08 03:03:01;;;;;;;2.73;2.60;;;;;;;23.23;29.34;94103.91;4940654;28;102801;-55
2021/12/08 03:05:27;;;;;;;2.70;2.50;;;;;;;23.22;29.43;94113.00;4940202;28;102780;-55
2021/12/08 03:07:53;;;;;;;3.17;2.97;;;;;;;23.25;29.91;94104.34;4941241;28;102607;-55
2021/12/08 03:10:25;;;;;;;3.30;3.10;;;;;;;23.24;29.75;94108.88;4940232;28;102786;-55
2021/12/08 03:12:51;;;;;;;3.17;2.97;;;;;;;23.24;29.67;94119.56;4939267;28;102759;-55
2021/12/08 03:15:17;;;;;;;3.60;3.40;;;;;;;23.22;29.74;94107.66;4939648;28;103453;-55
2021/12/08 03:17:43;;;;;;;3.50;3.30;;;;;;;23.24;29.28;94116.88;4940167;28;102707;-55
2021/12/08 03:20:15;;;;;;;3.20;3.00;;;;;;;23.14;29.80;94095.19;4940300;28;102803;-55
2021/12/08 03:22:46;;;;;;;2.93;2.73;;;;;;;23.26;29.81;94113.88;4921184;28;103589;-55
2021/12/08 03:25:16;;;;;;;3.70;3.50;;;;;;;23.25;29.74;94110.44;4940551;28;102671;-55
2021/12/08 03:27:50;;;;;;;3.20;3.00;;;;;;;23.24;29.38;94116.09;4939815;28;102845;-56
2021/12/08 03:30:25;;;;;;;3.47;3.27;;;;;;;23.18;29.74;94114.75;4923030;28;102891;-55
2021/12/08 03:32:56;;;;;;;3.73;3.43;;;;;;;23.24;29.95;94122.22;4939707;28;104360;-55
2021/12/08 03:35:22;;;;;;;3.40;3.10;;;;;;;23.24;29.43;94122.22;4925238;28;103031;-55
2021/12/08 03:37:48;;;;;;;4.30;4.00;;;;;;;23.24;29.59;94135.53;4930543;28;102963;-55
2021/12/08 03:40:18;;;;;;;3.70;3.40;;;;;;;23.24;29.30;94132.09;4940728;28;102766;-55
2021/12/08 03:42:45;;;;;;;3.70;3.40;;;;;;;23.20;29.63;94126.66;4940723;28;103221;-55
2021/12/08 03:45:18;;;;;;;4.00;3.70;;;;;;;23.23;29.44;94139.31;4940269;28;102862;-55
2021/12/08 03:47:47;;;;;;;3.80;3.50;;;;;;;23.17;29.75;94121.94;4940290;28;103509;-55
2021/12/08 03:50:16;;;;;;;4.40;4.10;;;;;;;23.26;29.60;94143.22;4939569;28;102902;-57
2021/12/08 03:52:43;;;;;;;3.93;3.63;;;;;;;23.23;29.64;94149.19;4940322;28;102791;-56
2021/12/08 03:55:12;;;;;;;4.57;4.17;;;;;;;23.22;30.05;94150.31;4939624;28;103352;-56
2021/12/08 03:57:38;;;;;;;4.57;4.27;;;;;;;23.21;29.96;94143.41;4939715;28;103003;-56
2021/12/08 04:00:08;;;;;;;5.00;4.60;;;;;;;23.19;29.52;94149.09;4939384;28;102905;-58
2021/12/08 04:02:33;;;;;;;4.80;4.50;;;;;;;23.20;29.60;94160.53;4936074;28;102700;-57
2021/12/08 04:04:59;;;;;;;4.73;4.33;;;;;;;23.22;29.45;94163.63;4939976;28;102849;-57
2021/12/08 04:07:25;;;;;;;4.67;4.30;;;;;;;23.22;29.76;94155.63;4938819;28;102768;-57
2021/12/08 04:09:51;;;;;;;4.70;4.30;;;;;;;23.22;29.42;94164.41;4928950;28;102777;-56
2021/12/08 04:12:21;;;;;;;5.20;4.83;;;;;;;23.18;29.53;94158.19;4931064;28;103858;-57
2021/12/08 04:15:01;;;;;;;5.73;5.33;;;;;;;23.24;29.67;94169.41;4936041;28;102697;-57
2021/12/08 04:17:37;;;;;;;6.30;5.80;;;;;;;23.08;29.08;94145.25;4939330;28;102886;-57
2021/12/08 04:20:26;;;;;;;5.77;5.37;;;;;;;23.26;29.53;94170.63;4936630;28;103303;-57
2021/12/08 04:22:55;;;;;;;5.20;4.80;;;;;;;23.22;29.14;94158.31;4933108;28;103378;-57
2021/12/08 04:25:33;;;;;;;5.87;5.07;;;;;;;23.28;29.51;94167.63;4938340;28;103827;-57
2021/12/08 04:28:03;;;;;;;5.90;5.50;;;;;;;23.29;29.32;94172.63;4938641;28;102891;-57
2021/12/08 04:30:34;;;;;;;6.17;5.67;;;;;;;23.30;29.44;94174.19;4940083;28;103186;-57
2021/12/08 04:33:00;;;;;;;5.13;4.73;;;;;;;23.31;28.97;94175.75;4936092;28;102892;-57
2021/12/08 04:35:27;;;;;;;5.90;5.40;;;;;;;23.28;29.49;94172.97;4931138;28;103038;-57
2021/12/08 04:37:56;;;;;;;5.57;5.17;;;;;;;23.26;29.04;94181.28;4939038;28;103422;-57
2021/12/08 04:44:02;;;;;;;7.33;6.73;;;;;;;23.19;29.72;94196.28;4907692;28;104251;-57
2021/12/08 04:46:29;;;;;;;7.63;6.93;;;;;;;23.14;29.64;94188.44;4914418;28;102955;-57
2021/12/08 04:52:16;;;;;;;7.80;7.10;;;;;;;23.08;29.20;94201.97;4934323;28;103170;-57
2021/12/08 05:02:46;;;;;;;11.50;6.57;;;;;;;23.29;29.46;94215.28;4943046;28;103236;-54
2021/12/08 05:05:48;;;;;;;7.70;6.80;;;;;;;23.36;29.08;94217.44;4935123;28;103845;-54
2021/12/08 05:08:20;;;;;;;7.53;6.83;;;;;;;23.53;29.58;94219.94;4927229;28;103098;-54
2021/12/08 05:10:49;;;;;;;8.00;7.20;;;;;;;23.64;29.33;94223.00;4933307;28;103423;-54
2021/12/08 05:13:17;;;;;;;7.83;7.13;;;;;;;23.78;29.85;94233.38;4925667;28;103004;-53
2021/12/08 05:15:47;;;;;;;7.53;6.93;;;;;;;23.84;30.66;94224.03;4935766;28;103968;-53
2021/12/08 05:18:17;;;;;;;7.90;7.20;;;;;;;23.85;31.45;94233.59;4930407;28;103309;-54
2021/12/08 05:21:03;;;;;;;9.50;8.03;;;;;;;23.80;31.17;94226.59;4931379;28;105205;-54
2021/12/08 05:23:53;;;;;;;8.40;7.20;;;;;;;23.80;31.02;94239.16;4931077;28;102824;-53
2021/12/08 05:26:28;;;;;;;9.77;7.60;;;;;;;23.79;31.83;94238.38;4926340;28;103465;-53
2021/12/08 05:28:59;;;;;;;9.10;8.23;;;;;;;23.78;31.90;94239.47;4925895;28;103226;-53
2021/12/08 05:31:28;;;;;;;10.37;9.37;;;;;;;23.74;31.42;94249.25;4926863;28;103493;-53
2021/12/08 05:33:55;;;;;;;11.30;9.40;;;;;;;23.65;31.21;94246.66;4935649;28;102813;-56
2021/12/08 05:36:21;;;;;;;11.60;10.43;;;;;;;23.54;30.37;94245.50;4939132;28;102886;-54
2021/12/08 05:38:49;;;;;;;11.03;10.03;;;;;;;23.39;30.70;94243.44;4938532;28;103271;-54
2021/12/08 05:41:18;;;;;;;11.07;9.97;;;;;;;23.34;29.88;94244.41;4933719;28;104015;-54
2021/12/08 05:43:45;;;;;;;11.30;10.40;;;;;;;23.24;30.37;94238.69;4920196;28;102843;-53
2021/12/08 05:46:12;;;;;;;11.67;9.67;;;;;;;23.22;29.51;94246.25;4918900;28;102751;-53
2021/12/08 05:48:38;;;;;;;10.83;9.87;;;;;;;23.14;29.47;94253.19;4919103;28;102953;-53
2021/12/08 05:51:12;;;;;;;10.73;9.83;;;;;;;23.14;29.04;94257.72;4927042;28;102993;-53
2021/12/08 05:53:40;;;;;;;10.80;9.80;;;;;;;23.08;28.11;94265.16;4918735;28;102644;-55
2021/12/08 05:56:07;;;;;;;11.30;10.40;;;;;;;23.02;27.84;94272.56;4919443;28;103340;-55
2021/12/08 05:58:33;;;;;;;11.20;10.20;;;;;;;23.02;27.83;94272.56;4918953;28;102722;-54
2021/12/08 06:01:04;;;;;;;11.63;10.53;;;;;;;23.01;28.10;94276.34;4925071;28;103604;-52
2021/12/08 06:03:30;;;;;;;10.87;9.77;;;;;;;23.06;27.40;94275.34;4955585;28;103284;-52
2021/12/08 06:05:57;;;;;;;10.57;9.77;;;;;;;23.19;27.35;94276.22;4957676;28;104482;-52
2021/12/08 06:08:24;;;;;;;10.47;9.57;;;;;;;23.30;28.64;94280.81;4957257;28;103377;-52
2021/12/08 06:10:50;;;;;;;10.20;9.30;;;;;;;23.35;29.29;94290.53;4954830;28;103214;-52
2021/12/08 06:13:16;;;;;;;12.37;9.60;;;;;;;23.30;29.68;94278.16;4938434;28;103353;-52
2021/12/08 06:15:45;;;;;;;10.13;9.00;;;;;;;23.39;30.07;94294.09;4919422;28;103890;-53
2021/12/08 06:18:11;;;;;;;9.90;9.00;;;;;;;23.39;30.49;94296.75;4918080;28;102733;-52
2021/12/08 06:20:37;;;;;;;10.80;9.80;;;;;;;23.21;31.15;94284.66;4926978;28;103406;-51
2021/12/08 06:23:05;;;;;;;11.43;9.10;;;;;;;23.39;32.15;94312.75;4937652;28;103705;-56
2021/12/08 06:25:31;;;;;;;9.30;8.50;;;;;;;23.36;32.01;94316.84;4937812;28;103029;-54
2021/12/08 06:27:57;;;;;;;11.30;10.17;;;;;;;23.34;31.79;94315.59;4937868;28;103177;-53
2021/12/08 06:30:27;;;;;;;10.87;9.67;;;;;;;23.33;32.30;94316.69;4951549;28;103098;-52
2021/12/08 06:32:52;;;;;;;10.90;9.80;;;;;;;23.45;32.11;94308.00;4952809;28;102786;-52
2021/12/08 06:35:25;;;;;;;11.43;9.90;;;;;;;23.45;32.36;94310.66;4955750;28;102688;-51
2021/12/08 06:37:52;;;;;;;11.70;10.43;;;;;;;23.59;32.83;94311.97;4956949;28;103841;-53
2021/12/08 06:40:53;;;;;;;12.83;10.40;;;;;;;23.64;33.01;94311.78;4956275;28;103190;-54
2021/12/08 06:43:23;;;;;;;14.30;12.80;;;;;;;23.61;34.08;94317.78;4935935;28;103078;-52
2021/12/08 06:45:52;;;;;;;15.40;13.70;;;;;;;23.62;33.47;94324.66;4935622;28;104049;-51
2021/12/08 06:48:26;;;;;;;13.83;12.30;;;;;;;23.64;33.26;94322.44;4937850;28;102694;-52
2021/12/08 06:51:03;;;;;;;13.53;12.10;;;;;;;23.63;34.08;94323.56;4937218;28;102803;-51
2021/12/08 06:53:30;;;;;;;14.77;13.33;;;;;;;23.62;33.70;94315.88;4934610;28;103406;-52
2021/12/08 06:56:05;;;;;;;15.40;13.90;;;;;;;23.62;33.39;94318.53;4937377;28;103384;-52
2021/12/08 06:58:37;;;;;;;15.10;13.50;;;;;;;23.58;33.40;94326.44;4937499;28;103285;-52
2021/12/08 07:09:49;;;;;;;13.67;11.80;;;;;;;23.55;33.52;94321.72;4915035;28;103307;-51
2021/12/08 07:12:24;;;;;;;12.50;11.30;;;;;;;23.57;32.90;94330.19;4930601;28;103559;-51
2021/12/08 07:14:59;;;;;;;12.50;11.20;;;;;;;23.57;32.72;94338.19;4925709;28;103200;-51
2021/12/08 07:17:29;;;;;;;12.73;11.73;;;;;;;23.57;32.73;94340.09;4916560;28;103208;-51
2021/12/08 07:20:15;;;;;;;13.27;12.07;;;;;;;23.45;32.77;94327.44;4918209;28;102706;-52
2021/12/08 07:22:45;;;;;;;12.33;11.07;;;;;;;23.51;32.56;94336.78;4931576;28;103305;-51
2021/12/08 07:25:12;;;;;;;14.63;11.37;;;;;;;23.50;32.64;94337.13;4923490;28;103419;-51
2021/12/08 07:27:38;;;;;;;11.60;10.60;;;;;;;23.54;32.74;94352.16;4916871;28;102808;-50
2021/12/08 07:30:10;;;;;;;13.30;11.57;;;;;;;23.51;33.09;94352.78;4939987;28;103135;-50
2021/12/08 07:32:38;;;;;;;13.07;11.87;;;;;;;23.60;32.06;94355.44;4940121;28;104498;-50
2021/12/08 07:35:19;;;;;;;12.23;10.47;;;;;;;23.61;32.77;94360.44;4937327;28;102868;-51
2021/12/08 07:37:46;;;;;;;11.57;10.37;;;;;;;23.55;32.25;94368.94;4937549;28;103452;-51
2021/12/08 07:40:28;;;;;;;10.67;9.70;;;;;;;23.45;32.41;94358.66;4939540;28;102934;-51
2021/12/08 07:43:05;;;;;;;12.17;9.53;;;;;;;23.45;32.20;94354.09;4934591;28;102812;-52
2021/12/08 07:45:40;;;;;;;12.47;10.47;;;;;;;23.48;32.18;94374.75;4938265;28;102679;-52
2021/12/08 07:48:08;;;;;;;11.83;9.63;;;;;;;23.54;32.03;94373.50;4939108;28;102749;-51
2021/12/08 07:50:52;;;;;;;10.83;9.80;;;;;;;23.56;31.83;94371.28;4938937;28;103353;-52
2021/12/08 07:53:21;;;;;;;11.77;10.10;;;;;;;23.56;31.83;94381.94;4953405;28;103657;-52
2021/12/08 07:55:52;;;;;;;10.80;9.90;;;;;;;23.58;31.92;94374.44;4954570;28;102620;-52
2021/12/08 07:58:20;;;;;;;10.00;9.10;;;;;;;23.58;31.56;94374.44;4922517;28;102597;-52
2021/12/08 08:00:53;;;;;;;11.07;9.47;;;;;;;23.54;31.48;94376.16;4921694;28;104092;-52
2021/12/08 08:03:20;;;;;;;12.80;11.50;;;;;;;23.56;32.06;94373.94;4953854;28;103477;-52
2021/12/08 08:05:50;;;;;;;12.03;11.00;;;;;;;23.54;31.55;94381.50;4942840;28;103186;-51
2021/12/08 08:08:18;;;;;;;12.27;11.00;;;;;;;23.54;31.68;94378.03;4939081;28;102669;-51
2021/12/08 08:10:54;;;;;;;11.87;10.83;;;;;;;23.55;31.57;94384.94;4939389;28;103489;-51
2021/12/08 08:13:21;;;;;;;11.57;10.57;;;;;;;23.55;31.22;94383.06;4935313;28;102994;-52
2021/12/08 08:15:52;;;;;;;12.13;10.70;;;;;;;23.55;31.19;94385.72;4919865;28;102596;-52
2021/12/08 08:18:24;;;;;;;13.00;11.90;;;;;;;23.53;31.19;94385.25;4919058;28;103598;-52
2021/12/08 08:20:56;;;;;;;13.53;12.33;;;;;;;23.52;31.18;94386.38;4921357;28;103454;-52
2021/12/08 08:23:24;;;;;;;13.03;11.93;;;;;;;23.49;31.77;94376.31;4953520;28;102704;-52
2021/12/08 08:25:51;;;;;;;12.90;11.90;;;;;;;23.47;31.44;94399.88;4959554;28;102637;-52
2021/12/08 08:28:18;;;;;;;13.40;12.17;;;;;;;23.46;31.02;94384.19;4958968;28;102782;-52
2021/12/08 08:30:52;;;;;;;13.97;12.77;;;;;;;23.44;31.56;94389.84;4941211;28;103274;-52
2021/12/08 08:33:18;;;;;;;13.60;12.40;;;;;;;23.43;31.26;94385.63;4951843;28;103989;-52
2021/12/08 08:35:51;;;;;;;13.93;12.63;;;;;;;23.44;31.15;94384.53;4958370;28;102845;-53
2021/12/08 08:38:29;;;;;;;12.73;11.60;;;;;;;23.51;31.17;94392.78;4958706;28;103136;-51
2021/12/08 08:41:07;;;;;;;13.27;12.03;;;;;;;23.54;30.80;94396.72;4958903;28;103576;-52
2021/12/08 08:43:33;;;;;;;15.90;14.40;;;;;;;23.51;31.61;94389.34;4955097;28;102768;-52
2021/12/08 08:46:06;;;;;;;14.07;12.70;;;;;;;23.53;31.20;94390.59;4938722;28;102716;-52
2021/12/08 08:48:37;;;;;;;17.47;15.97;;;;;;;23.53;30.57;94398.59;4939604;28;104418;-51
2021/12/08 08:51:18;;;;;;;15.23;13.93;;;;;;;23.53;30.90;94395.94;4938135;28;102894;-52
2021/12/08 08:53:50;;;;;;;20.67;18.90;;;;;;;23.55;32.03;94388.38;4941050;28;102813;-52
2021/12/08 08:56:21;;;;;;;21.37;19.67;;;;;;;23.50;31.28;94375.22;4933129;28;103462;-52
2021/12/08 08:58:53;;;;;;;18.40;16.83;;;;;;;23.64;31.30;94381.13;4928384;28;103194;-52
2021/12/08 09:01:29;;;;;;;20.90;19.10;;;;;;;23.65;30.82;94379.22;4928009;28;102826;-53
2021/12/08 09:04:12;;;;;;;20.17;18.37;;;;;;;23.55;31.00;94374.28;4929773;28;102930;-52
2021/12/08 09:06:44;;;;;;;18.70;17.10;;;;;;;23.55;31.11;94384.94;4927588;28;102756;-51
2021/12/08 09:09:17;;;;;;;19.40;17.80;;;;;;;23.52;31.09;94386.38;4927311;28;103038;-51
2021/12/08 09:11:58;;;;;;;17.40;15.90;;;;;;;23.49;31.37;94372.88;4932531;28;104034;-51
2021/12/08 09:14:31;;;;;;;19.33;17.63;;;;;;;23.42;30.99;94365.41;4932288;28;103311;-51
2021/12/08 09:17:07;;;;;;;20.07;18.27;;;;;;;23.39;30.93;94368.72;4931693;28;102108;-51
2021/12/08 09:19:40;;;;;;;20.70;18.80;;;;;;;23.45;30.74;94371.97;4930731;28;102915;-51
2021/12/08 09:22:11;;;;;;;21.87;19.97;;;;;;;23.44;31.14;94363.19;4931482;28;103496;-52
2021/12/08 09:24:46;;;;;;;18.90;17.37;;;;;;;23.44;31.16;94357.09;4931248;28;102821;-51
2021/12/08 09:27:16;;;;;;;20.30;18.60;;;;;;;23.42;31.27;94358.19;4932538;28;102726;-50
2021/12/08 09:29:50;;;;;;;19.70;18.07;;;;;;;23.43;31.23;94350.97;4931153;28;102762;-50
2021/12/08 09:32:59;;;;;;;19.87;18.27;;;;;;;23.42;31.08;94344.88;4932008;28;103236;-51
2021/12/08 09:35:30;;;;;;;19.87;18.13;;;;;;;23.38;30.82;94343.94;4924542;28;102901;-51
2021/12/08 09:38:04;;;;;;;24.23;22.23;;;;;;;23.37;31.18;94339.72;4999390;22;105034;-74
2021/12/08 09:40:50;;;;;;;23.93;21.93;;;;;;;23.43;30.69;94345.63;4999251;28;103568;-73
2021/12/08 09:43:22;;;;;;;23.97;21.97;;;;;;;23.44;30.56;94346.41;5018229;28;102962;-72
2021/12/08 09:46:03;;;;;;;20.77;19.07;;;;;;;23.41;30.38;94351.31;5023891;28;102697;-70
2021/12/08 09:48:29;;;;;;;20.93;19.10;;;;;;;23.38;30.72;94343.94;5023974;28;102750;-71
2021/12/08 09:50:58;;;;;;;21.60;19.70;;;;;;;23.39;31.06;94352.72;5022883;27;102585;-72
2021/12/08 09:53:26;;;;;;;19.90;18.23;;;;;;;23.36;31.00;94345.38;5004791;28;104374;-71
2021/12/08 09:55:53;;;;;;;17.80;16.30;;;;;;;23.36;30.60;94350.72;5021948;28;104735;-72
2021/12/08 09:58:18;;;;;;;17.03;15.53;;;;;;;23.31;30.94;94340.22;5005939;28;102911;-71
2021/12/08 10:00:48;;;;;;;16.60;15.30;;;;;;;23.33;30.79;94354.00;5023401;28;103386;-71
2021/12/08 10:03:15;;;;;;;16.30;15.00;;;;;;;23.32;30.59;94350.56;5001519;28;105608;-72
2021/12/08 10:05:41;;;;;;;15.60;14.30;;;;;;;23.30;30.18;94349.31;5021659;28;103558;-71
2021/12/08 10:08:10;;;;;;;13.67;12.60;;;;;;;23.27;29.85;94344.66;5023838;28;102752;-72
2021/12/08 10:10:39;;;;;;;14.97;13.77;;;;;;;23.29;29.92;94351.22;5022112;28;104507;-71
2021/12/08 10:13:05;;;;;;;14.13;13.03;;;;;;;23.31;30.23;94358.88;5003825;28;103158;-71
2021/12/08 10:15:43;;;;;;;13.50;12.40;;;;;;;23.28;29.71;94344.31;5001405;28;102784;-70
2021/12/08 10:18:09;;;;;;;13.47;12.27;;;;;;;23.21;29.80;94360.06;5004594;28;102721;-73
2021/12/08 10:20:38;;;;;;;14.40;13.10;;;;;;;23.29;30.29;94361.09;5003489;28;102674;-71
2021/12/08 10:23:30;;;;;;;12.23;11.23;;;;;;;23.33;29.45;94359.34;5012617;28;102685;-72
2021/12/08 10:25:55;;;;;;;13.30;12.30;;;;;;;23.40;29.37;94357.75;5002385;28;103535;-73
2021/12/08 10:28:27;;;;;;;13.50;12.40;;;;;;;23.40;29.64;94352.41;5022383;28;103189;-71
2021/12/08 10:31:19;;;;;;;13.00;11.90;;;;;;;23.39;29.33;94342.06;5021053;28;103484;-73
2021/12/08 10:34:06;;;;;;;12.00;10.90;;;;;;;23.40;29.90;94336.41;5018741;28;103301;-72
2021/12/08 10:36:44;;;;;;;14.10;12.90;;;;;;;23.44;29.75;94336.53;5021018;28;102733;-71
2021/12/08 10:39:42;;;;;;;13.60;12.20;;;;;;;23.45;29.56;94338.09;5020543;28;102626;-71
2021/12/08 10:42:14;;;;;;;14.60;13.20;;;;;;;23.47;29.86;94343.09;5002253;28;103915;-72
2021/12/08 10:45:10;;;;;;;14.27;13.00;;;;;;;23.43;30.39;94340.31;5023140;28;103893;-72
2021/12/08 10:47:49;;;;;;;14.00;12.80;;;;;;;23.56;31.01;94338.50;5017933;28;102746;-72
2021/12/08 10:56:08;;;;;;;13.50;12.40;;;;;;;23.72;30.14;94320.03;5012993;28;102669;-72
2021/12/08 10:58:36;;;;;;;14.30;13.10;;;;;;;23.70;30.25;94329.16;5013296;28;103614;-72
2021/12/08 11:01:16;;;;;;;14.47;13.23;;;;;;;23.73;30.44;94326.94;5008659;28;102642;-71
2021/12/08 11:03:43;;;;;;;14.40;13.27;;;;;;;23.77;30.13;94327.84;5006890;28;102786;-72
2021/12/08 11:06:13;;;;;;;14.23;13.03;;;;;;;23.76;30.15;94326.28;4987204;28;102872;-71
2021/12/08 11:08:46;;;;;;;15.67;14.27;;;;;;;23.82;30.32;94331.06;5002159;28;103103;-71
2021/12/08 11:11:20;;;;;;;14.30;13.20;;;;;;;23.83;30.32;94327.31;4983078;28;103203;-72
2021/12/08 11:13:58;;;;;;;14.27;13.07;;;;;;;23.86;30.21;94320.56;4998394;28;105607;-74
2021/12/08 11:16:35;;;;;;;13.63;12.53;;;;;;;23.96;29.85;94325.47;5020365;28;103039;-74
2021/12/08 11:19:09;;;;;;;13.60;12.37;;;;;;;24.06;30.22;94341.06;5001294;28;102681;-75
2021/12/08 11:21:39;;;;;;;13.60;12.50;;;;;;;24.13;29.90;94346.66;5003731;28;103250;-74
2021/12/08 11:24:21;;;;;;;13.93;12.73;;;;;;;24.16;29.51;94340.66;5013370;28;102670;-75
2021/12/08 11:26:51;;;;;;;13.03;11.93;;;;;;;24.18;29.83;94341.09;5022633;28;103290;-74
2021/12/08 11:29:18;;;;;;;13.10;12.10;;;;;;;24.23;29.77;94337.47;4998887;28;103705;-75
2021/12/08 11:31:47;;;;;;;12.57;11.57;;;;;;;24.26;30.03;94342.13;5004094;28;103921;-74
2021/12/08 11:34:25;;;;;;;12.63;11.57;;;;;;;24.25;30.17;94344.03;5001544;28;105321;-74
2021/12/08 11:36:55;;;;;;;12.20;11.13;;;;;;;24.25;29.89;94338.69;5002178;28;105551;-73
2021/12/08 11:39:27;;;;;;;12.97;11.97;;;;;;;24.20;29.95;94343.47;5004206;28;102848;-69
2021/12/08 11:41:58;;;;;;;15.50;14.30;;;;;;;24.01;30.22;94350.03;5001276;28;103088;-69
2021/12/08 11:44:27;;;;;;;16.80;15.40;;;;;;;23.87;30.59;94344.25;4989569;28;104596;-72
2021/12/08 11:47:15;;;;;;;15.97;14.67;;;;;;;23.77;31.05;94349.97;5002286;28;103538;-70
2021/12/08 11:49:43;;;;;;;15.13;13.97;;;;;;;23.87;30.90;94346.91;5001955;28;102865;-72
2021/12/08 11:52:13;;;;;;;14.30;13.20;;;;;;;23.95;30.38;94345.25;5002173;28;102483;-72
2021/12/08 11:54:56;;;;;;;14.60;13.50;;;;;;;24.03;30.84;94347.06;5001748;28;103392;-72
2021/12/08 11:57:36;;;;;;;14.40;13.30;;;;;;;24.04;30.39;94351.31;5001747;28;102665;-71
2021/12/08 12:00:18;;;;;;;13.63;12.63;;;;;;;24.11;30.45;94359.53;4999654;28;104808;-72
2021/12/08 12:03:01;;;;;;;14.17;13.07;;;;;;;24.11;30.54;94362.22;5002529;28;103033;-72
2021/12/08 12:05:30;;;;;;;13.60;12.50;;;;;;;24.13;30.54;94364.56;5001446;28;103500;-72
2021/12/08 12:07:56;;;;;;;13.93;12.73;;;;;;;24.13;30.27;94368.00;5001670;28;102754;-71
2021/12/08 12:10:24;;;;;;;12.97;12.03;;;;;;;24.16;30.38;94366.56;4982211;28;103661;-72
2021/12/08 12:12:50;;;;;;;13.10;12.10;;;;;;;24.10;30.23;94370.56;5012313;28;102778;-72
2021/12/08 12:15:18;;;;;;;13.07;12.07;;;;;;;24.06;30.36;94370.44;5001961;28;104217;-73
2021/12/08 12:17:47;;;;;;;13.50;12.40;;;;;;;24.03;30.23;94371.09;5021623;28;103479;-72
2021/12/08 12:20:38;;;;;;;12.70;11.70;;;;;;;24.07;30.71;94374.66;5019511;28;102755;-72
2021/12/08 12:23:32;;;;;;;14.47;13.27;;;;;;;24.05;30.50;94371.53;5008158;28;102622;-72